Time;durP1;ratioP1;P1;durP2;ratioP2;P2;SDS_P1;SDS_P2;PMS_P1;PMS_P2;Temp;Humidity;BMP_temperature;BMP_pressure;BME280_temperature;BME280_humidity;BME280_pressure;Samples;Min_cycle;Max_cycle;Signal;HPM_P1;HPM_P2
2022/11/24 00:01:18;;;;;;;4.28;1.42;;;31.30;40.80;;;;;;5004694;28;20026;-67
2022/11/24 00:03:52;;;;;;;1.50;0.20;;;31.10;41.60;;;;;;5007521;28;20506;-67
2022/11/24 00:06:19;;;;;;;2.38;0.40;;;31.20;44.80;;;;;;5002455;28;20127;-68
2022/11/24 00:08:46;;;;;;;1.55;0.57;;;31.00;41.20;;;;;;5004449;28;20518;-66
2022/11/24 00:11:19;;;;;;;0.30;0.30;;;30.60;45.50;;;;;;5011751;28;20034;-68
2022/11/24 00:13:47;;;;;;;2.10;0.50;;;30.70;47.30;;;;;;5011146;28;20037;-68
2022/11/24 00:16:15;;;;;;;0.65;0.32;;;31.00;45.80;;;;;;5011705;28;20030;-69
2022/11/24 00:18:44;;;;;;;2.67;0.40;;;31.10;45.00;;;;;;5011780;28;20391;-69
2022/11/24 00:21:12;;;;;;;1.25;0.30;;;31.20;45.10;;;;;;5011503;28;20132;-69
2022/11/24 00:23:39;;;;;;;1.35;0.50;;;31.20;43.60;;;;;;5011313;28;20022;-69
2022/11/24 00:26:16;;;;;;;0.85;0.43;;;31.10;41.40;;;;;;5011035;28;20044;-69
2022/11/24 00:28:44;;;;;;;6.10;0.70;;;30.60;41.80;;;;;;5007374;28;20109;-69
2022/11/24 00:31:36;;;;;;;3.58;0.45;;;30.80;45.90;;;;;;5003010;28;20048;-68
2022/11/24 00:34:10;;;;;;;1.40;0.40;;;30.70;44.80;;;;;;4994486;28;20184;-68
2022/11/24 00:36:38;;;;;;;1.02;0.30;;;30.90;44.70;;;;;;5007733;28;20160;-68
2022/11/24 00:39:16;;;;;;;2.45;0.43;;;31.20;45.90;;;;;;5008727;28;20037;-68
2022/11/24 00:41:43;;;;;;;3.47;0.40;;;31.40;44.50;;;;;;5008432;28;20022;-68
2022/11/24 00:44:10;;;;;;;2.03;0.40;;;31.60;47.30;;;;;;5008327;28;20060;-70
2022/11/24 00:46:38;;;;;;;0.85;0.38;;;31.80;46.40;;;;;;5006638;28;20585;-68
2022/11/24 00:49:05;;;;;;;1.73;0.57;;;32.00;44.90;;;;;;5009526;28;20115;-68
2022/11/24 00:51:33;;;;;;;0.50;0.40;;;31.60;41.80;;;;;;5014838;28;20026;-68
2022/11/24 00:54:01;;;;;;;3.42;0.60;;;30.40;41.90;;;;;;5022334;28;20026;-69
2022/11/24 00:56:30;;;;;;;3.03;0.43;;;29.80;44.00;;;;;;5003243;28;20167;-69
2022/11/24 00:58:57;;;;;;;0.60;0.30;;;29.60;43.70;;;;;;5010756;28;20075;-68
2022/11/24 01:01:27;;;;;;;0.55;0.35;;;29.80;46.20;;;;;;5010867;28;20033;-69
2022/11/24 01:03:55;;;;;;;1.55;0.40;;;29.80;43.90;;;;;;5011063;28;20022;-68
2022/11/24 01:06:24;;;;;;;3.00;1.13;;;30.00;45.20;;;;;;5008563;28;20495;-69
2022/11/24 01:08:52;;;;;;;1.85;0.43;;;30.30;46.20;;;;;;5010800;28;20461;-70
2022/11/24 01:11:28;;;;;;;0.85;0.20;;;30.80;45.60;;;;;;5010628;28;20506;-70
2022/11/24 01:13:58;;;;;;;0.30;0.20;;;31.40;44.00;;;;;;5007137;28;20028;-70
2022/11/24 01:16:37;;;;;;;2.58;0.40;;;31.50;43.70;;;;;;5003969;28;20035;-68
2022/11/24 01:19:04;;;;;;;2.80;0.40;;;31.80;42.70;;;;;;5016311;28;20494;-68
2022/11/24 01:21:31;;;;;;;4.88;0.40;;;32.10;44.20;;;;;;5008062;28;20022;-68
2022/11/24 01:23:59;;;;;;;3.60;0.32;;;32.50;44.00;;;;;;5026259;28;20018;-68
2022/11/24 01:26:26;;;;;;;4.55;0.38;;;32.50;42.10;;;;;;5004907;28;20022;-68
2022/11/24 01:28:56;;;;;;;2.90;0.50;;;32.40;43.60;;;;;;5006389;28;20029;-68
2022/11/24 01:31:24;;;;;;;3.40;0.50;;;32.00;42.30;;;;;;5007628;28;20046;-68
2022/11/24 01:33:52;;;;;;;0.57;0.30;;;31.90;43.40;;;;;;5024206;28;20037;-68
2022/11/24 01:36:20;;;;;;;2.65;0.45;;;32.10;45.60;;;;;;5007147;28;20075;-68
2022/11/24 01:38:47;;;;;;;2.05;1.05;;;32.40;46.20;;;;;;5007817;28;20523;-68
2022/11/24 01:41:22;;;;;;;0.77;0.30;;;32.60;44.80;;;;;;5005769;28;20061;-68
2022/11/24 01:43:51;;;;;;;1.80;0.30;;;32.90;44.30;;;;;;5009374;28;20493;-68
2022/11/24 01:46:33;;;;;;;0.45;0.25;;;33.10;45.60;;;;;;5007834;28;20379;-68
2022/11/24 01:49:32;;;;;;;3.50;0.98;;;33.10;43.20;;;;;;5014269;28;20461;-68
2022/11/24 01:52:06;;;;;;;2.60;0.32;;;32.90;41.70;;;;;;5003544;28;20136;-68
2022/11/24 01:54:45;;;;;;;0.98;0.30;;;32.70;42.80;;;;;;5005438;28;20029;-68
2022/11/24 01:57:51;;;;;;;0.20;0.20;;;32.50;44.80;;;;;;5009037;28;20551;-68
2022/11/24 02:00:18;;;;;;;3.17;0.50;;;32.70;44.50;;;;;;4960922;28;20027;-68
2022/11/24 02:02:45;;;;;;;1.77;0.50;;;32.50;41.80;;;;;;5003376;28;20041;-67
2022/11/24 02:05:22;;;;;;;1.50;0.75;;;32.50;44.50;;;;;;5008049;28;20159;-67
2022/11/24 02:07:53;;;;;;;0.52;0.32;;;32.50;40.60;;;;;;5017051;28;20026;-67
2022/11/24 02:10:22;;;;;;;0.75;0.40;;;32.70;45.60;;;;;;5024162;28;20160;-68
2022/11/24 02:12:53;;;;;;;0.98;0.40;;;33.00;42.00;;;;;;5008657;28;20040;-67
2022/11/24 02:15:21;;;;;;;3.90;1.13;;;32.90;40.20;;;;;;5005748;28;20037;-67
2022/11/24 02:17:49;;;;;;;1.92;0.40;;;32.60;41.30;;;;;;5016080;28;20453;-67
2022/11/24 02:20:17;;;;;;;5.60;0.60;;;32.90;40.80;;;;;;5008108;28;20021;-67
2022/11/24 02:22:53;;;;;;;0.60;0.30;;;32.90;43.10;;;;;;5008143;28;20506;-68
2022/11/24 02:25:54;;;;;;;5.68;0.90;;;32.70;39.60;;;;;;5015557;28;20018;-67
2022/11/24 02:28:23;;;;;;;3.72;0.50;;;32.50;42.30;;;;;;5006688;28;20017;-67
2022/11/24 02:30:51;;;;;;;2.30;0.30;;;32.70;39.60;;;;;;5013565;28;20045;-67
2022/11/24 02:33:20;;;;;;;3.70;0.32;;;32.40;42.70;;;;;;5012989;28;20125;-67
2022/11/24 02:35:48;;;;;;;0.45;0.22;;;32.30;41.70;;;;;;5007731;28;20026;-67
2022/11/24 02:38:15;;;;;;;2.88;0.50;;;32.30;41.80;;;;;;5005973;28;20113;-67
2022/11/24 02:40:47;;;;;;;2.83;0.45;;;32.50;42.80;;;;;;5004266;28;20097;-68
2022/11/24 02:43:19;;;;;;;6.68;0.57;;;32.50;41.60;;;;;;5006843;28;20153;-68
2022/11/24 02:45:46;;;;;;;0.90;0.30;;;32.80;42.10;;;;;;5009797;28;20450;-67
2022/11/24 02:48:15;;;;;;;1.25;0.32;;;33.10;39.60;;;;;;5006423;28;20022;-67
2022/11/24 02:50:42;;;;;;;4.47;0.50;;;32.40;38.90;;;;;;5006996;28;20434;-67
2022/11/24 02:53:09;;;;;;;2.30;0.50;;;32.40;41.80;;;;;;5011312;28;20030;-67
2022/11/24 02:55:37;;;;;;;4.82;0.32;;;32.40;42.80;;;;;;5000874;28;20038;-67
2022/11/24 02:58:04;;;;;;;3.60;0.60;;;31.90;40.60;;;;;;5007301;28;20029;-67
2022/11/24 03:00:31;;;;;;;3.17;0.32;;;31.70;40.70;;;;;;5015062;28;20062;-67
2022/11/24 03:02:59;;;;;;;0.90;0.30;;;31.40;42.10;;;;;;5009914;28;20022;-68
2022/11/24 03:05:26;;;;;;;1.58;0.40;;;30.90;40.60;;;;;;5009362;28;20483;-67
2022/11/24 03:07:53;;;;;;;0.80;0.32;;;31.20;44.30;;;;;;5017556;28;20036;-67
2022/11/24 03:10:20;;;;;;;3.25;0.28;;;31.60;42.20;;;;;;5012341;28;20029;-67
2022/11/24 03:12:47;;;;;;;1.52;0.45;;;31.10;42.40;;;;;;5025756;28;20639;-67
2022/11/24 03:15:15;;;;;;;1.50;0.40;;;31.20;42.00;;;;;;5028436;28;20032;-67
2022/11/24 03:17:42;;;;;;;3.03;0.30;;;31.60;42.30;;;;;;5024620;28;20030;-67
2022/11/24 03:20:10;;;;;;;1.65;0.30;;;31.60;42.10;;;;;;5019376;28;20040;-67
2022/11/24 03:22:37;;;;;;;0.75;0.30;;;31.80;41.70;;;;;;5010005;28;20026;-67
2022/11/24 03:25:05;;;;;;;3.20;0.30;;;31.60;41.10;;;;;;5011060;28;20030;-67
2022/11/24 03:27:32;;;;;;;5.78;0.43;;;31.20;41.40;;;;;;5014632;28;20026;-67
2022/11/24 03:29:59;;;;;;;4.15;0.60;;;31.00;42.40;;;;;;5010647;28;20025;-67
2022/11/24 03:32:27;;;;;;;1.88;0.32;;;30.90;42.20;;;;;;5010074;28;20120;-68
2022/11/24 03:34:54;;;;;;;1.80;0.20;;;30.70;41.10;;;;;;5026425;28;20052;-68
2022/11/24 03:37:21;;;;;;;1.95;0.57;;;31.00;43.60;;;;;;5029938;28;20033;-67
2022/11/24 03:39:48;;;;;;;0.93;0.30;;;31.10;41.30;;;;;;5013204;28;20041;-68
2022/11/24 03:42:16;;;;;;;2.25;0.40;;;31.60;42.20;;;;;;5012808;28;20075;-68
2022/11/24 03:44:43;;;;;;;1.55;0.30;;;32.20;41.50;;;;;;5016261;28;20021;-68
2022/11/24 03:47:11;;;;;;;1.02;0.30;;;32.30;40.80;;;;;;5008762;28;20049;-67
2022/11/24 03:49:40;;;;;;;0.85;0.30;;;32.40;42.00;;;;;;5010692;28;20072;-68
2022/11/24 03:52:08;;;;;;;6.20;0.50;;;32.80;40.90;;;;;;5011870;28;20033;-68
2022/11/24 03:54:35;;;;;;;0.82;0.20;;;32.80;39.80;;;;;;5007961;28;20316;-67
2022/11/24 03:57:02;;;;;;;3.40;0.50;;;32.80;41.20;;;;;;5010848;28;20026;-68
2022/11/24 03:59:30;;;;;;;3.35;0.45;;;32.50;41.10;;;;;;5008835;28;20033;-68
2022/11/24 04:01:57;;;;;;;3.05;0.22;;;31.90;40.90;;;;;;5010522;28;20483;-68
2022/11/24 04:04:24;;;;;;;0.28;0.20;;;31.40;40.90;;;;;;5015536;28;20044;-69
2022/11/24 04:06:51;;;;;;;2.72;0.30;;;30.80;40.00;;;;;;5020562;28;20026;-68
2022/11/24 04:09:18;;;;;;;3.83;0.77;;;30.60;41.70;;;;;;5012347;28;20080;-67
2022/11/24 04:14:31;;;;;;;7.43;1.00;;;30.00;44.30;;;;;;5003166;28;20092;-68
2022/11/24 04:16:58;;;;;;;3.28;1.10;;;29.50;45.30;;;;;;5012249;28;20091;-68
2022/11/24 04:19:25;;;;;;;3.95;0.90;;;29.50;45.40;;;;;;5009941;28;20364;-67
2022/11/24 04:21:53;;;;;;;4.15;1.00;;;29.20;46.40;;;;;;5009134;28;20522;-68
2022/11/24 04:24:20;;;;;;;4.15;0.70;;;28.70;46.30;;;;;;5014709;28;20508;-67
2022/11/24 04:26:47;;;;;;;3.88;0.70;;;28.50;46.90;;;;;;5012078;28;20033;-69
2022/11/24 04:29:14;;;;;;;4.90;0.75;;;28.10;48.00;;;;;;5009981;28;20041;-69
2022/11/24 04:31:41;;;;;;;5.47;1.10;;;28.00;49.60;;;;;;5009281;28;20121;-68
2022/11/24 04:34:10;;;;;;;3.45;1.40;;;28.30;48.50;;;;;;5014110;28;20049;-68
2022/11/24 04:36:39;;;;;;;7.25;1.00;;;28.00;47.50;;;;;;5017017;28;20497;-68
2022/11/24 04:39:07;;;;;;;3.30;0.77;;;27.70;49.50;;;;;;5026443;28;20034;-68
2022/11/24 04:41:34;;;;;;;6.30;1.30;;;27.70;48.70;;;;;;5014488;28;20029;-68
2022/11/24 04:44:01;;;;;;;2.58;0.80;;;27.20;49.40;;;;;;5017529;28;20030;-67
2022/11/24 04:46:28;;;;;;;4.35;0.90;;;27.10;50.00;;;;;;5012866;28;20033;-68
2022/11/24 04:48:58;;;;;;;7.43;0.85;;;27.30;49.90;;;;;;5012618;28;20049;-68
2022/11/24 04:51:25;;;;;;;2.47;0.98;;;27.40;49.20;;;;;;5010705;28;20549;-68
2022/11/24 04:53:52;;;;;;;3.22;1.23;;;27.60;49.50;;;;;;5026568;28;20028;-68
2022/11/24 04:56:20;;;;;;;5.57;0.85;;;27.50;49.30;;;;;;5009735;28;20783;-68
2022/11/24 04:58:50;;;;;;;4.93;1.00;;;27.60;50.00;;;;;;5000796;28;20026;-68
2022/11/24 05:01:17;;;;;;;4.45;0.90;;;27.60;49.70;;;;;;5011075;28;20034;-69
2022/11/24 05:03:44;;;;;;;3.33;0.93;;;27.40;49.80;;;;;;5021024;28;20026;-68
2022/11/24 05:06:12;;;;;;;9.70;0.90;;;26.90;50.70;;;;;;5026998;28;20037;-70
2022/11/24 05:08:39;;;;;;;1.73;0.90;;;26.70;51.30;;;;;;5009346;28;20018;-69
2022/11/24 05:11:07;;;;;;;5.38;0.85;;;26.60;51.50;;;;;;5020167;28;20045;-69
2022/11/24 05:13:34;;;;;;;4.20;1.00;;;26.90;51.00;;;;;;5021485;28;20021;-69
2022/11/24 05:16:01;;;;;;;3.63;1.23;;;27.00;50.20;;;;;;5015540;28;20482;-69
2022/11/24 05:18:28;;;;;;;6.93;0.82;;;26.90;50.90;;;;;;5018480;28;20654;-69
2022/11/24 05:20:56;;;;;;;4.70;1.00;;;27.00;51.10;;;;;;5022358;28;20530;-69
2022/11/24 05:23:24;;;;;;;3.95;0.63;;;26.50;52.00;;;;;;5020586;28;20025;-68
2022/11/24 05:25:51;;;;;;;6.15;0.80;;;26.10;52.80;;;;;;5026538;28;20017;-68
2022/11/24 05:28:19;;;;;;;4.88;0.90;;;26.00;52.30;;;;;;5013507;28;20108;-68
2022/11/24 05:30:46;;;;;;;3.65;0.70;;;26.00;52.60;;;;;;5017423;28;20022;-68
2022/11/24 05:33:18;;;;;;;2.72;0.90;;;26.00;52.90;;;;;;5015079;28;20049;-68
2022/11/24 05:35:47;;;;;;;4.75;1.05;;;26.00;52.90;;;;;;5010947;28;20471;-71
2022/11/24 05:38:16;;;;;;;5.53;0.95;;;25.80;53.40;;;;;;5000922;28;20917;-68
2022/11/24 05:40:44;;;;;;;5.10;0.80;;;25.60;53.50;;;;;;5020217;28;20021;-69
2022/11/24 05:43:20;;;;;;;7.97;0.80;;;25.20;54.30;;;;;;5015733;28;20018;-68
2022/11/24 05:45:47;;;;;;;5.22;0.50;;;25.30;55.10;;;;;;5015770;28;20101;-68
2022/11/24 05:48:15;;;;;;;10.40;1.02;;;25.30;54.80;;;;;;5018169;28;20025;-68
2022/11/24 05:50:42;;;;;;;2.83;0.85;;;25.50;55.20;;;;;;5013669;28;20101;-68
2022/11/24 05:53:12;;;;;;;6.35;0.90;;;25.50;55.10;;;;;;5018418;28;20110;-69
2022/11/24 05:55:42;;;;;;;8.02;1.13;;;25.30;55.40;;;;;;5010756;28;20108;-68
2022/11/24 05:58:10;;;;;;;5.93;1.70;;;25.30;56.20;;;;;;5007953;28;20026;-68
2022/11/24 06:00:37;;;;;;;3.75;0.90;;;25.20;55.60;;;;;;5002567;28;20022;-69
2022/11/24 06:03:04;;;;;;;3.92;0.63;;;25.00;56.20;;;;;;5000085;28;20084;-69
2022/11/24 06:05:32;;;;;;;3.97;0.80;;;24.70;57.50;;;;;;5005822;28;20364;-69
2022/11/24 06:08:00;;;;;;;2.03;0.60;;;24.60;57.70;;;;;;5009669;28;20030;-68
2022/11/24 06:10:27;;;;;;;5.78;0.80;;;24.50;57.90;;;;;;5006696;28;20116;-69
2022/11/24 06:12:55;;;;;;;1.98;0.50;;;24.40;59.10;;;;;;5005456;28;20037;-67
2022/11/24 06:15:22;;;;;;;3.50;1.23;;;24.70;58.90;;;;;;5009436;28;20117;-67
2022/11/24 06:17:56;;;;;;;7.72;1.13;;;24.70;57.10;;;;;;5012731;28;20040;-68
2022/11/24 06:20:25;;;;;;;2.75;0.70;;;24.50;57.70;;;;;;5000028;28;20073;-68
2022/11/24 06:22:52;;;;;;;1.83;0.70;;;24.70;57.50;;;;;;5006546;28;20463;-68
2022/11/24 06:25:19;;;;;;;2.47;0.80;;;24.60;57.80;;;;;;5010043;28;20121;-68
2022/11/24 06:27:46;;;;;;;9.77;1.10;;;24.50;57.90;;;;;;5009900;28;20395;-68
2022/11/24 06:30:14;;;;;;;3.20;0.77;;;24.30;59.40;;;;;;5024444;28;20073;-68
2022/11/24 06:32:43;;;;;;;4.85;0.73;;;24.40;59.00;;;;;;5008102;28;20045;-68
2022/11/24 06:35:14;;;;;;;4.72;1.42;;;24.20;60.70;;;;;;5013049;28;20164;-67
2022/11/24 06:37:41;;;;;;;4.60;1.00;;;24.00;62.10;;;;;;5016909;28;20506;-67
2022/11/24 06:40:09;;;;;;;6.88;1.23;;;24.00;62.60;;;;;;5015688;28;20057;-67
2022/11/24 06:42:37;;;;;;;4.90;1.05;;;24.00;62.70;;;;;;5026416;28;20022;-68
2022/11/24 06:45:05;;;;;;;5.20;1.00;;;24.20;62.50;;;;;;5012348;28;20113;-68
2022/11/24 06:47:32;;;;;;;2.65;0.70;;;24.10;62.80;;;;;;5017399;28;20064;-68
2022/11/24 06:50:00;;;;;;;4.05;0.88;;;23.90;64.10;;;;;;5009804;28;20047;-69
2022/11/24 06:52:27;;;;;;;4.38;0.77;;;23.90;64.40;;;;;;5011720;28;20478;-67
2022/11/24 06:54:54;;;;;;;5.15;0.90;;;24.00;64.30;;;;;;5012780;28;20037;-72
2022/11/24 06:57:21;;;;;;;9.00;1.27;;;23.60;65.00;;;;;;5009504;28;20026;-71
2022/11/24 06:59:48;;;;;;;3.15;1.00;;;23.50;66.70;;;;;;5011890;28;20030;-72
2022/11/24 07:02:16;;;;;;;1.92;0.70;;;23.50;67.10;;;;;;5013115;28;20097;-70
2022/11/24 07:04:43;;;;;;;4.65;1.98;;;23.60;66.60;;;;;;5010687;28;20026;-71
2022/11/24 07:07:10;;;;;;;4.22;0.82;;;23.70;68.00;;;;;;5014638;28;20030;-71
2022/11/24 07:09:37;;;;;;;4.82;0.90;;;23.70;67.90;;;;;;5022339;28;20304;-73
2022/11/24 07:12:05;;;;;;;5.05;1.50;;;23.40;66.00;;;;;;5024506;28;20435;-72
2022/11/24 07:14:32;;;;;;;4.25;0.80;;;23.30;68.50;;;;;;5015612;28;20402;-70
2022/11/24 07:17:01;;;;;;;3.88;1.20;;;23.20;69.70;;;;;;5017308;28;20026;-70
2022/11/24 07:19:28;;;;;;;6.07;1.40;;;23.10;70.80;;;;;;5011138;28;20441;-71
2022/11/24 07:21:56;;;;;;;4.97;1.02;;;23.00;71.70;;;;;;5017039;28;20059;-70
2022/11/24 07:24:23;;;;;;;3.83;1.13;;;23.10;70.80;;;;;;5027541;28;20021;-74
2022/11/24 07:26:50;;;;;;;4.63;0.90;;;22.80;72.10;;;;;;5019493;28;20173;-71
2022/11/24 07:29:17;;;;;;;5.50;1.13;;;22.60;73.00;;;;;;5005388;28;21052;-71
2022/11/24 07:31:45;;;;;;;3.47;1.48;;;22.30;76.10;;;;;;5003465;28;20037;-71
2022/11/24 07:34:13;;;;;;;8.15;1.25;;;22.00;78.20;;;;;;5005670;28;20049;-72
2022/11/24 07:36:41;;;;;;;11.75;1.10;;;22.00;79.20;;;;;;4999842;28;20109;-70
2022/11/24 07:39:08;;;;;;;3.58;0.77;;;21.90;79.90;;;;;;5007793;28;20061;-70
2022/11/24 07:41:36;;;;;;;6.03;1.25;;;21.90;80.90;;;;;;5009671;28;20032;-70
2022/11/24 07:44:03;;;;;;;5.30;0.80;;;21.80;81.00;;;;;;5005565;28;20022;-65
2022/11/24 07:46:30;;;;;;;9.50;1.02;;;21.70;81.00;;;;;;5001187;28;20518;-66
2022/11/24 07:48:58;;;;;;;4.47;1.30;;;21.70;82.30;;;;;;5006619;28;20117;-66
2022/11/24 07:51:25;;;;;;;5.30;1.48;;;21.70;81.90;;;;;;5008073;28;20750;-67
2022/11/24 07:53:52;;;;;;;4.72;0.82;;;21.50;82.50;;;;;;5001264;28;20026;-67
2022/11/24 07:56:19;;;;;;;6.63;1.00;;;21.40;84.10;;;;;;5004361;28;20030;-68
2022/11/24 07:58:47;;;;;;;5.78;1.38;;;21.20;84.70;;;;;;5005722;28;20119;-66
2022/11/24 08:01:16;;;;;;;6.43;1.15;;;21.20;85.70;;;;;;5000776;28;20053;-66
2022/11/24 08:03:44;;;;;;;5.30;1.25;;;21.10;86.70;;;;;;4999725;28;20542;-66
2022/11/24 08:06:13;;;;;;;6.20;1.10;;;20.90;87.70;;;;;;5006173;28;20026;-68
2022/11/24 08:08:40;;;;;;;2.10;0.90;;;20.80;89.90;;;;;;5003058;28;20034;-66
2022/11/24 08:11:09;;;;;;;5.75;1.67;;;20.70;90.90;;;;;;4999832;28;20730;-66
2022/11/24 08:13:37;;;;;;;8.60;1.45;;;20.60;91.40;;;;;;5003068;28;20032;-66
2022/11/24 08:16:06;;;;;;;6.97;1.60;;;20.50;91.50;;;;;;5006810;28;20037;-66
2022/11/24 08:18:34;;;;;;;6.05;1.00;;;20.40;91.70;;;;;;5001303;28;20032;-66
2022/11/24 08:21:02;;;;;;;4.43;1.13;;;20.40;92.00;;;;;;4998840;28;20057;-65
2022/11/24 08:23:31;;;;;;;4.03;1.40;;;20.30;92.10;;;;;;5003658;28;20021;-67
2022/11/24 08:26:03;;;;;;;7.40;1.35;;;20.20;92.60;;;;;;5023777;28;20060;-68
2022/11/24 08:28:31;;;;;;;3.72;0.85;;;20.10;93.00;;;;;;5005576;28;20033;-67
2022/11/24 08:31:13;;;;;;;6.70;1.05;;;20.10;93.40;;;;;;5002062;28;20038;-66
2022/11/24 08:33:41;;;;;;;4.43;1.20;;;20.00;93.90;;;;;;5001213;28;20050;-66
2022/11/24 08:36:11;;;;;;;10.52;1.20;;;20.00;94.30;;;;;;5012521;28;20036;-66
2022/11/24 08:38:39;;;;;;;4.85;1.27;;;19.80;94.30;;;;;;5000733;28;20121;-66
2022/11/24 08:41:11;;;;;;;14.68;1.30;;;19.80;94.70;;;;;;5006619;28;20100;-65
2022/11/24 08:43:39;;;;;;;9.18;1.42;;;19.80;95.10;;;;;;5005184;28;20113;-65
2022/11/24 08:46:15;;;;;;;6.57;1.20;;;19.70;95.20;;;;;;5008162;28;20560;-65
2022/11/24 08:48:47;;;;;;;6.35;1.10;;;19.70;95.30;;;;;;5014456;28;20017;-65
2022/11/24 08:51:17;;;;;;;4.47;1.35;;;19.60;95.70;;;;;;5016836;28;20109;-65
2022/11/24 08:53:44;;;;;;;5.82;1.40;;;19.50;96.00;;;;;;5023589;28;20029;-65
2022/11/24 08:56:12;;;;;;;6.85;1.30;;;19.60;96.30;;;;;;5006112;28;20057;-65
2022/11/24 08:58:40;;;;;;;7.72;1.02;;;19.50;96.50;;;;;;5004805;28;20053;-66
2022/11/24 09:01:10;;;;;;;12.55;2.30;;;19.40;96.70;;;;;;5004760;28;20029;-66
2022/11/24 09:03:38;;;;;;;5.90;1.48;;;19.40;97.10;;;;;;5007487;28;20056;-66
2022/11/24 09:06:06;;;;;;;11.63;1.30;;;19.30;97.40;;;;;;5008076;28;20167;-66
2022/11/24 09:08:33;;;;;;;9.68;1.30;;;19.20;97.70;;;;;;5005755;28;20379;-66
2022/11/24 09:11:10;;;;;;;6.65;1.27;;;19.20;97.90;;;;;;5009030;28;20837;-65
2022/11/24 09:13:38;;;;;;;7.38;1.38;;;19.20;98.10;;;;;;5006809;28;20034;-66
2022/11/24 09:16:14;;;;;;;5.45;1.20;;;19.20;98.30;;;;;;5008736;28;20061;-66
2022/11/24 09:18:42;;;;;;;6.97;1.35;;;19.20;98.40;;;;;;5010714;28;20083;-65
2022/11/24 09:21:15;;;;;;;9.45;1.48;;;19.20;98.50;;;;;;5006715;28;20498;-66
2022/11/24 09:23:43;;;;;;;10.00;1.63;;;19.20;98.60;;;;;;5006975;28;20025;-66
2022/11/24 09:26:22;;;;;;;9.55;1.98;;;19.20;98.80;;;;;;5008095;28;20096;-66
2022/11/24 09:28:53;;;;;;;6.15;2.30;;;19.10;98.90;;;;;;5023419;28;20694;-65
2022/11/24 09:31:22;;;;;;;6.28;1.23;;;19.10;99.20;;;;;;5003715;28;20033;-66
2022/11/24 09:33:50;;;;;;;7.18;1.33;;;19.00;98.80;;;;;;5014586;28;20045;-65
2022/11/24 09:36:17;;;;;;;10.88;1.70;;;18.90;98.90;;;;;;5004872;28;20691;-66
2022/11/24 09:38:44;;;;;;;6.05;1.40;;;18.90;98.90;;;;;;5009823;28;20613;-65
2022/11/24 09:41:15;;;;;;;9.07;1.73;;;18.90;99.10;;;;;;5008134;28;20033;-65
2022/11/24 09:43:51;;;;;;;6.07;1.02;;;18.90;99.30;;;;;;5007866;28;20535;-66
2022/11/24 09:46:27;;;;;;;8.40;2.08;;;18.90;99.40;;;;;;5002022;28;20653;-65
2022/11/24 09:48:57;;;;;;;7.53;1.60;;;18.90;99.40;;;;;;5009662;28;20028;-65
2022/11/24 09:51:30;;;;;;;8.48;1.73;;;18.80;99.40;;;;;;5004594;28;20491;-66
2022/11/24 09:54:13;;;;;;;7.65;2.38;;;18.90;99.60;;;;;;5003571;28;20427;-66
2022/11/24 09:56:42;;;;;;;5.05;1.25;;;18.80;99.50;;;;;;5005267;28;20860;-65
2022/11/24 09:59:17;;;;;;;10.40;1.65;;;18.80;99.40;;;;;;5003556;28;20042;-66
2022/11/24 10:01:46;;;;;;;5.60;1.88;;;18.80;99.40;;;;;;5006543;28;20109;-66
2022/11/24 10:04:38;;;;;;;8.68;1.67;;;18.80;99.50;;;;;;5013211;28;20053;-65
2022/11/24 10:07:28;;;;;;;9.82;1.92;;;18.80;99.40;;;;;;5005655;28;20080;-65
2022/11/24 10:10:21;;;;;;;8.02;2.00;;;18.80;99.70;;;;;;5003881;28;20089;-65
2022/11/24 10:13:00;;;;;;;8.23;1.42;;;18.70;99.80;;;;;;5003287;28;20450;-65
2022/11/24 10:15:52;;;;;;;7.95;1.55;;;18.60;99.90;;;;;;5014361;28;20758;-65
2022/11/24 10:18:52;;;;;;;4.55;1.15;;;18.60;99.90;;;;;;5003268;28;20064;-65
2022/11/24 10:21:34;;;;;;;8.65;1.70;;;18.50;99.90;;;;;;5019203;28;20061;-65
2022/11/24 10:24:26;;;;;;;4.20;1.08;;;18.50;99.90;;;;;;5006920;28;20120;-65
2022/11/24 10:27:12;;;;;;;6.78;1.98;;;18.50;99.90;;;;;;5007156;28;20033;-65
2022/11/24 10:29:42;;;;;;;8.48;1.13;;;18.50;99.90;;;;;;5002239;28;20049;-66
2022/11/24 10:32:49;;;;;;;9.68;1.70;;;18.40;99.90;;;;;;5009691;28;20533;-66
2022/11/24 10:35:21;;;;;;;9.80;1.45;;;18.40;99.90;;;;;;4971096;28;20094;-65
2022/11/24 10:38:11;;;;;;;10.70;1.63;;;18.40;99.90;;;;;;5001241;28;20045;-65
2022/11/24 10:40:45;;;;;;;7.40;1.30;;;18.40;99.90;;;;;;4980688;28;20084;-66
2022/11/24 10:43:12;;;;;;;10.02;1.60;;;18.30;99.90;;;;;;5012332;28;20034;-65
2022/11/24 10:45:40;;;;;;;8.20;1.42;;;18.30;99.90;;;;;;5003527;28;20036;-65
2022/11/24 10:48:24;;;;;;;8.38;1.80;;;18.30;99.90;;;;;;5003912;28;20165;-64
2022/11/24 10:51:11;;;;;;;5.00;1.60;;;18.30;99.90;;;;;;5002208;28;20767;-65
2022/11/24 10:53:41;;;;;;;11.98;1.65;;;18.20;99.90;;;;;;5010307;28;20124;-65
2022/11/24 10:56:08;;;;;;;7.25;1.42;;;18.20;99.90;;;;;;5009436;28;20033;-65
2022/11/24 10:58:37;;;;;;;9.20;2.10;;;18.10;99.90;;;;;;5008100;28;20030;-65
2022/11/24 11:01:13;;;;;;;12.50;1.77;;;18.10;99.90;;;;;;5007963;28;20533;-66
2022/11/24 11:03:57;;;;;;;9.02;2.28;;;18.00;99.90;;;;;;5001483;28;20030;-65
2022/11/24 11:06:29;;;;;;;11.15;2.30;;;18.00;99.90;;;;;;5007771;28;20033;-66
2022/11/24 11:09:09;;;;;;;6.65;2.03;;;17.90;99.90;;;;;;5015161;28;20097;-66
2022/11/24 11:11:38;;;;;;;7.68;1.88;;;17.80;99.90;;;;;;5005991;28;20507;-66
2022/11/24 11:14:09;;;;;;;8.75;2.17;;;17.80;99.90;;;;;;5004799;28;20030;-65
2022/11/24 11:16:41;;;;;;;7.10;1.30;;;17.70;99.90;;;;;;5009816;28;20029;-66
2022/11/24 11:19:40;;;;;;;10.57;1.90;;;17.70;99.90;;;;;;5012022;28;20026;-66
2022/11/24 11:22:22;;;;;;;11.90;2.17;;;17.70;99.90;;;;;;5012472;28;20053;-66
2022/11/24 11:25:22;;;;;;;10.45;1.63;;;17.70;99.90;;;;;;5018542;28;20425;-65
2022/11/24 11:27:49;;;;;;;9.18;1.85;;;17.70;99.90;;;;;;5011971;28;20033;-66
2022/11/24 11:30:27;;;;;;;12.57;1.95;;;17.70;99.90;;;;;;5013141;28;20022;-66
2022/11/24 11:32:55;;;;;;;10.63;1.80;;;17.80;99.90;;;;;;5017674;28;20096;-66
2022/11/24 11:35:25;;;;;;;11.75;2.17;;;17.90;99.90;;;;;;5009323;28;20034;-65
2022/11/24 11:37:56;;;;;;;10.55;1.83;;;17.90;99.90;;;;;;5010978;28;20080;-66
2022/11/24 11:40:29;;;;;;;9.48;1.40;;;18.00;99.90;;;;;;5014013;28;20026;-65
2022/11/24 11:43:19;;;;;;;12.82;2.63;;;18.00;99.90;;;;;;5022401;28;20482;-65
2022/11/24 11:45:57;;;;;;;10.65;1.63;;;18.10;99.90;;;;;;5009555;28;20025;-66
2022/11/24 11:48:32;;;;;;;4.72;1.98;;;18.10;99.90;;;;;;5013678;28;20033;-65
2022/11/24 11:51:35;;;;;;;9.35;2.17;;;18.10;99.90;;;;;;5009987;28;20042;-65
2022/11/24 11:54:16;;;;;;;8.25;1.73;;;18.10;99.90;;;;;;5009802;28;20454;-65
2022/11/24 11:57:04;;;;;;;7.93;2.05;;;18.10;99.90;;;;;;5007343;28;20041;-64
2022/11/24 12:00:04;;;;;;;11.02;1.52;;;18.10;99.90;;;;;;5012228;28;20490;-66
2022/11/24 12:02:34;;;;;;;14.50;2.38;;;18.10;99.90;;;;;;5005479;28;20131;-66
2022/11/24 12:05:27;;;;;;;6.65;2.13;;;18.00;99.90;;;;;;5008475;28;20033;-66
2022/11/24 12:08:32;;;;;;;11.57;1.95;;;18.00;99.90;;;;;;5011005;28;20115;-66
2022/11/24 12:11:13;;;;;;;8.40;1.70;;;17.90;99.90;;;;;;5003260;28;20113;-66
2022/11/24 12:13:54;;;;;;;10.60;1.65;;;17.90;99.90;;;;;;5010690;28;20037;-65
2022/11/24 12:16:24;;;;;;;9.73;1.70;;;17.90;99.90;;;;;;5008515;28;20026;-65
2022/11/24 12:18:57;;;;;;;7.18;2.03;;;17.80;99.90;;;;;;5014611;28;20037;-66
2022/11/24 12:21:24;;;;;;;13.68;2.13;;;17.80;99.90;;;;;;5008178;28;20033;-66
2022/11/24 12:24:09;;;;;;;13.65;2.00;;;17.90;99.90;;;;;;5009814;28;20032;-66
2022/11/24 12:26:42;;;;;;;5.80;1.25;;;17.80;99.90;;;;;;5005159;28;20048;-67
2022/11/24 12:29:30;;;;;;;9.05;1.50;;;17.90;99.90;;;;;;5009175;28;20080;-66
2022/11/24 12:32:15;;;;;;;9.15;2.00;;;17.90;99.90;;;;;;5010994;28;20041;-66
2022/11/24 12:34:45;;;;;;;9.73;1.70;;;17.90;99.90;;;;;;4965153;28;20412;-66
2022/11/24 12:37:47;;;;;;;14.70;3.22;;;17.90;99.90;;;;;;4970474;28;20126;-65
2022/11/24 12:40:41;;;;;;;10.02;2.47;;;17.80;99.90;;;;;;4970267;28;20432;-66
2022/11/24 12:43:26;;;;;;;8.10;1.90;;;17.80;99.90;;;;;;4964740;28;20031;-67
2022/11/24 12:45:59;;;;;;;13.02;3.60;;;17.70;99.90;;;;;;4965337;28;20030;-66
2022/11/24 12:49:10;;;;;;;11.43;1.80;;;17.70;99.90;;;;;;4969880;28;20039;-66
2022/11/24 12:51:42;;;;;;;10.05;2.67;;;17.70;99.90;;;;;;4960566;28;20054;-66
2022/11/24 12:54:20;;;;;;;11.80;1.90;;;17.70;99.90;;;;;;4971059;28;20034;-66
2022/11/24 12:57:06;;;;;;;10.15;1.88;;;17.80;99.90;;;;;;4969322;28;20114;-65
2022/11/24 12:59:42;;;;;;;7.90;1.45;;;17.80;99.90;;;;;;4968715;28;20030;-66
2022/11/24 13:02:24;;;;;;;12.60;1.60;;;17.80;99.90;;;;;;4970906;28;20480;-66
2022/11/24 13:05:25;;;;;;;8.20;1.70;;;17.80;99.90;;;;;;4971285;28;20034;-66
2022/11/24 13:08:02;;;;;;;11.57;2.38;;;17.90;99.90;;;;;;4943380;28;20166;-66
2022/11/24 13:10:34;;;;;;;8.93;1.98;;;17.90;99.90;;;;;;4975419;28;20042;-66
2022/11/24 13:13:08;;;;;;;16.90;3.60;;;18.00;99.90;;;;;;4973545;28;20053;-67